sensor_id;sensor_type;location;lat;lon;timestamp;P1;durP1;ratioP1;P2;durP2;ratioP2
8458;SDS011;4266;48.816;9.154;2022-12-18T00:01:14;65.93;;;33.37;;
8458;SDS011;4266;48.816;9.154;2022-12-18T00:03:40;57.13;;;30.37;;
8458;SDS011;4266;48.816;9.154;2022-12-18T00:06:06;61.13;;;32.27;;
8458;SDS011;4266;48.816;9.154;2022-12-18T00:08:32;61.90;;;33.03;;
8458;SDS011;4266;48.816;9.154;2022-12-18T00:11:04;62.67;;;32.10;;
8458;SDS011;4266;48.816;9.154;2022-12-18T00:13:31;60.07;;;32.20;;
8458;SDS011;4266;48.816;9.154;2022-12-18T00:16:03;62.57;;;31.37;;
8458;SDS011;4266;48.816;9.154;2022-12-18T00:18:29;65.00;;;32.93;;
8458;SDS011;4266;48.816;9.154;2022-12-18T00:20:58;63.90;;;32.27;;
8458;SDS011;4266;48.816;9.154;2022-12-18T00:23:21;65.70;;;32.10;;
8458;SDS011;4266;48.816;9.154;2022-12-18T00:25:47;63.80;;;32.73;;
8458;SDS011;4266;48.816;9.154;2022-12-18T00:28:13;62.40;;;33.53;;
8458;SDS011;4266;48.816;9.154;2022-12-18T00:30:38;64.23;;;33.13;;
8458;SDS011;4266;48.816;9.154;2022-12-18T00:33:04;67.03;;;33.43;;
8458;SDS011;4266;48.816;9.154;2022-12-18T00:35:30;65.93;;;33.03;;
8458;SDS011;4266;48.816;9.154;2022-12-18T00:37:55;56.43;;;30.97;;
8458;SDS011;4266;48.816;9.154;2022-12-18T00:40:22;64.37;;;34.00;;
8458;SDS011;4266;48.816;9.154;2022-12-18T00:42:48;57.50;;;32.10;;
8458;SDS011;4266;48.816;9.154;2022-12-18T00:45:20;63.70;;;32.33;;
8458;SDS011;4266;48.816;9.154;2022-12-18T00:47:46;62.37;;;32.90;;
8458;SDS011;4266;48.816;9.154;2022-12-18T00:50:13;66.33;;;33.33;;
8458;SDS011;4266;48.816;9.154;2022-12-18T00:52:39;64.97;;;33.07;;
8458;SDS011;4266;48.816;9.154;2022-12-18T00:55:06;70.80;;;36.30;;
8458;SDS011;4266;48.816;9.154;2022-12-18T00:57:32;71.17;;;34.13;;
8458;SDS011;4266;48.816;9.154;2022-12-18T00:59:58;66.40;;;33.17;;
8458;SDS011;4266;48.816;9.154;2022-12-18T01:02:23;66.30;;;34.23;;
8458;SDS011;4266;48.816;9.154;2022-12-18T01:04:49;65.47;;;34.07;;
8458;SDS011;4266;48.816;9.154;2022-12-18T01:07:15;68.63;;;34.33;;
8458;SDS011;4266;48.816;9.154;2022-12-18T01:09:42;69.20;;;33.17;;
8458;SDS011;4266;48.816;9.154;2022-12-18T01:12:07;67.67;;;33.53;;
8458;SDS011;4266;48.816;9.154;2022-12-18T01:14:33;67.13;;;33.83;;
8458;SDS011;4266;48.816;9.154;2022-12-18T01:17:00;63.27;;;32.87;;
8458;SDS011;4266;48.816;9.154;2022-12-18T01:19:25;65.87;;;33.67;;
8458;SDS011;4266;48.816;9.154;2022-12-18T01:21:51;59.63;;;34.40;;
8458;SDS011;4266;48.816;9.154;2022-12-18T01:24:18;65.70;;;33.17;;
8458;SDS011;4266;48.816;9.154;2022-12-18T01:26:43;67.70;;;33.23;;
8458;SDS011;4266;48.816;9.154;2022-12-18T01:29:09;62.40;;;33.07;;
8458;SDS011;4266;48.816;9.154;2022-12-18T01:31:35;70.27;;;34.17;;
8458;SDS011;4266;48.816;9.154;2022-12-18T01:34:01;62.57;;;32.47;;
8458;SDS011;4266;48.816;9.154;2022-12-18T01:36:28;59.50;;;32.73;;
8458;SDS011;4266;48.816;9.154;2022-12-18T01:38:54;66.13;;;34.20;;
8458;SDS011;4266;48.816;9.154;2022-12-18T01:41:20;76.17;;;35.13;;
8458;SDS011;4266;48.816;9.154;2022-12-18T01:43:48;61.67;;;33.83;;
8458;SDS011;4266;48.816;9.154;2022-12-18T01:46:14;65.37;;;33.67;;
8458;SDS011;4266;48.816;9.154;2022-12-18T01:48:39;62.83;;;34.33;;
8458;SDS011;4266;48.816;9.154;2022-12-18T01:51:05;69.83;;;34.63;;
8458;SDS011;4266;48.816;9.154;2022-12-18T01:53:31;69.43;;;34.70;;
8458;SDS011;4266;48.816;9.154;2022-12-18T01:55:56;77.17;;;36.80;;
8458;SDS011;4266;48.816;9.154;2022-12-18T01:58:24;79.03;;;36.43;;
8458;SDS011;4266;48.816;9.154;2022-12-18T02:00:49;78.97;;;34.53;;
8458;SDS011;4266;48.816;9.154;2022-12-18T02:03:14;77.47;;;34.47;;
8458;SDS011;4266;48.816;9.154;2022-12-18T02:05:47;72.63;;;36.20;;
8458;SDS011;4266;48.816;9.154;2022-12-18T02:08:38;74.07;;;35.50;;
8458;SDS011;4266;48.816;9.154;2022-12-18T02:11:05;73.73;;;35.43;;
8458;SDS011;4266;48.816;9.154;2022-12-18T02:13:45;79.70;;;36.40;;
8458;SDS011;4266;48.816;9.154;2022-12-18T02:17:37;75.90;;;37.23;;
8458;SDS011;4266;48.816;9.154;2022-12-18T02:19:18;72.33;;;35.73;;
8458;SDS011;4266;48.816;9.154;2022-12-18T02:21:51;71.77;;;34.63;;
8458;SDS011;4266;48.816;9.154;2022-12-18T02:24:21;70.27;;;34.23;;
8458;SDS011;4266;48.816;9.154;2022-12-18T02:26:45;76.93;;;34.03;;
8458;SDS011;4266;48.816;9.154;2022-12-18T02:29:10;75.33;;;34.30;;
8458;SDS011;4266;48.816;9.154;2022-12-18T02:31:37;68.30;;;34.80;;
8458;SDS011;4266;48.816;9.154;2022-12-18T02:34:02;70.40;;;34.30;;
8458;SDS011;4266;48.816;9.154;2022-12-18T02:36:27;68.43;;;32.63;;
8458;SDS011;4266;48.816;9.154;2022-12-18T02:38:52;73.50;;;34.73;;
8458;SDS011;4266;48.816;9.154;2022-12-18T02:41:18;63.07;;;32.53;;
8458;SDS011;4266;48.816;9.154;2022-12-18T02:43:47;60.73;;;32.10;;
8458;SDS011;4266;48.816;9.154;2022-12-18T02:49:06;76.97;;;33.47;;
8458;SDS011;4266;48.816;9.154;2022-12-18T02:51:32;70.33;;;32.77;;
8458;SDS011;4266;48.816;9.154;2022-12-18T02:53:58;61.77;;;31.10;;
8458;SDS011;4266;48.816;9.154;2022-12-18T02:56:36;59.00;;;32.37;;
8458;SDS011;4266;48.816;9.154;2022-12-18T02:59:02;62.53;;;31.87;;
8458;SDS011;4266;48.816;9.154;2022-12-18T03:01:37;62.90;;;30.20;;
8458;SDS011;4266;48.816;9.154;2022-12-18T03:04:24;64.87;;;32.77;;
8458;SDS011;4266;48.816;9.154;2022-12-18T03:06:54;71.70;;;33.03;;
8458;SDS011;4266;48.816;9.154;2022-12-18T03:09:24;60.30;;;30.37;;
8458;SDS011;4266;48.816;9.154;2022-12-18T03:11:51;67.23;;;33.23;;
8458;SDS011;4266;48.816;9.154;2022-12-18T03:14:20;69.00;;;33.87;;
8458;SDS011;4266;48.816;9.154;2022-12-18T03:16:47;63.73;;;30.40;;
8458;SDS011;4266;48.816;9.154;2022-12-18T03:19:14;69.10;;;31.77;;
8458;SDS011;4266;48.816;9.154;2022-12-18T03:21:44;62.20;;;31.33;;
8458;SDS011;4266;48.816;9.154;2022-12-18T03:24:09;65.63;;;32.90;;
8458;SDS011;4266;48.816;9.154;2022-12-18T03:26:35;67.90;;;32.13;;
8458;SDS011;4266;48.816;9.154;2022-12-18T03:29:02;71.47;;;33.93;;
8458;SDS011;4266;48.816;9.154;2022-12-18T03:31:27;61.47;;;30.90;;
8458;SDS011;4266;48.816;9.154;2022-12-18T03:33:53;60.67;;;30.60;;
8458;SDS011;4266;48.816;9.154;2022-12-18T03:36:19;64.23;;;32.57;;
8458;SDS011;4266;48.816;9.154;2022-12-18T03:38:44;64.03;;;31.57;;
8458;SDS011;4266;48.816;9.154;2022-12-18T03:41:15;71.83;;;32.90;;
8458;SDS011;4266;48.816;9.154;2022-12-18T03:43:50;68.43;;;32.37;;
8458;SDS011;4266;48.816;9.154;2022-12-18T03:46:24;70.10;;;32.23;;
8458;SDS011;4266;48.816;9.154;2022-12-18T03:49:05;63.37;;;31.17;;
8458;SDS011;4266;48.816;9.154;2022-12-18T03:51:36;64.80;;;32.70;;
8458;SDS011;4266;48.816;9.154;2022-12-18T03:53:58;61.33;;;32.40;;
8458;SDS011;4266;48.816;9.154;2022-12-18T03:56:25;64.53;;;32.63;;
8458;SDS011;4266;48.816;9.154;2022-12-18T03:58:49;59.87;;;31.47;;
8458;SDS011;4266;48.816;9.154;2022-12-18T04:01:15;56.77;;;29.70;;
8458;SDS011;4266;48.816;9.154;2022-12-18T04:03:41;54.53;;;29.27;;
8458;SDS011;4266;48.816;9.154;2022-12-18T04:06:07;58.47;;;29.40;;
8458;SDS011;4266;48.816;9.154;2022-12-18T04:08:32;60.93;;;30.37;;
8458;SDS011;4266;48.816;9.154;2022-12-18T04:10:59;59.57;;;29.23;;
8458;SDS011;4266;48.816;9.154;2022-12-18T04:13:24;60.93;;;30.97;;
8458;SDS011;4266;48.816;9.154;2022-12-18T04:15:53;55.80;;;29.47;;
8458;SDS011;4266;48.816;9.154;2022-12-18T04:18:19;66.17;;;29.23;;
8458;SDS011;4266;48.816;9.154;2022-12-18T04:20:45;63.77;;;30.77;;
8458;SDS011;4266;48.816;9.154;2022-12-18T04:23:11;60.23;;;31.83;;
8458;SDS011;4266;48.816;9.154;2022-12-18T04:25:37;59.40;;;29.80;;
8458;SDS011;4266;48.816;9.154;2022-12-18T04:28:03;56.87;;;29.20;;
8458;SDS011;4266;48.816;9.154;2022-12-18T04:30:29;54.57;;;28.67;;
8458;SDS011;4266;48.816;9.154;2022-12-18T04:32:55;58.27;;;29.80;;
8458;SDS011;4266;48.816;9.154;2022-12-18T04:35:20;60.73;;;29.00;;
8458;SDS011;4266;48.816;9.154;2022-12-18T04:37:46;52.70;;;29.00;;
8458;SDS011;4266;48.816;9.154;2022-12-18T04:40:12;54.33;;;29.10;;
8458;SDS011;4266;48.816;9.154;2022-12-18T04:42:38;62.07;;;29.17;;
8458;SDS011;4266;48.816;9.154;2022-12-18T04:45:04;59.73;;;29.57;;
8458;SDS011;4266;48.816;9.154;2022-12-18T04:47:30;50.93;;;27.13;;
8458;SDS011;4266;48.816;9.154;2022-12-18T04:49:56;59.63;;;29.00;;
8458;SDS011;4266;48.816;9.154;2022-12-18T04:52:22;51.30;;;27.50;;
8458;SDS011;4266;48.816;9.154;2022-12-18T04:54:47;52.30;;;26.97;;
8458;SDS011;4266;48.816;9.154;2022-12-18T04:57:13;46.93;;;26.87;;
8458;SDS011;4266;48.816;9.154;2022-12-18T04:59:39;48.83;;;27.57;;
8458;SDS011;4266;48.816;9.154;2022-12-18T05:02:05;49.63;;;25.97;;
8458;SDS011;4266;48.816;9.154;2022-12-18T05:04:30;43.20;;;24.33;;
8458;SDS011;4266;48.816;9.154;2022-12-18T05:06:56;42.33;;;25.57;;
8458;SDS011;4266;48.816;9.154;2022-12-18T05:09:22;47.30;;;26.47;;
8458;SDS011;4266;48.816;9.154;2022-12-18T05:11:48;48.93;;;27.83;;
8458;SDS011;4266;48.816;9.154;2022-12-18T05:14:13;51.17;;;28.83;;
8458;SDS011;4266;48.816;9.154;2022-12-18T05:16:39;45.67;;;27.23;;
8458;SDS011;4266;48.816;9.154;2022-12-18T05:19:05;54.50;;;28.07;;
8458;SDS011;4266;48.816;9.154;2022-12-18T05:21:31;55.80;;;27.80;;
8458;SDS011;4266;48.816;9.154;2022-12-18T05:23:56;53.53;;;27.93;;
8458;SDS011;4266;48.816;9.154;2022-12-18T05:26:23;50.07;;;27.17;;
8458;SDS011;4266;48.816;9.154;2022-12-18T05:28:49;47.07;;;27.13;;
8458;SDS011;4266;48.816;9.154;2022-12-18T05:31:14;48.53;;;27.77;;
8458;SDS011;4266;48.816;9.154;2022-12-18T05:33:40;51.67;;;27.63;;
8458;SDS011;4266;48.816;9.154;2022-12-18T05:36:07;52.30;;;26.87;;
8458;SDS011;4266;48.816;9.154;2022-12-18T05:38:34;55.80;;;28.77;;
8458;SDS011;4266;48.816;9.154;2022-12-18T05:40:59;59.03;;;27.83;;
8458;SDS011;4266;48.816;9.154;2022-12-18T05:43:25;54.87;;;29.27;;
8458;SDS011;4266;48.816;9.154;2022-12-18T05:45:51;53.20;;;28.17;;
8458;SDS011;4266;48.816;9.154;2022-12-18T05:48:17;50.03;;;27.87;;
8458;SDS011;4266;48.816;9.154;2022-12-18T05:50:43;46.47;;;25.63;;
8458;SDS011;4266;48.816;9.154;2022-12-18T05:53:08;45.43;;;25.13;;
8458;SDS011;4266;48.816;9.154;2022-12-18T05:55:35;50.17;;;26.60;;
8458;SDS011;4266;48.816;9.154;2022-12-18T05:58:00;44.37;;;24.63;;
8458;SDS011;4266;48.816;9.154;2022-12-18T06:00:26;51.23;;;27.27;;
8458;SDS011;4266;48.816;9.154;2022-12-18T06:02:52;45.73;;;26.43;;
8458;SDS011;4266;48.816;9.154;2022-12-18T06:05:17;44.70;;;26.33;;
8458;SDS011;4266;48.816;9.154;2022-12-18T06:07:43;47.53;;;25.03;;
8458;SDS011;4266;48.816;9.154;2022-12-18T06:10:09;45.80;;;24.90;;
8458;SDS011;4266;48.816;9.154;2022-12-18T06:12:34;49.17;;;25.20;;
8458;SDS011;4266;48.816;9.154;2022-12-18T06:15:00;46.30;;;26.33;;
8458;SDS011;4266;48.816;9.154;2022-12-18T06:17:27;44.27;;;26.03;;
8458;SDS011;4266;48.816;9.154;2022-12-18T06:19:52;40.67;;;25.33;;
8458;SDS011;4266;48.816;9.154;2022-12-18T06:22:19;40.90;;;24.60;;
8458;SDS011;4266;48.816;9.154;2022-12-18T06:24:45;48.23;;;25.50;;
8458;SDS011;4266;48.816;9.154;2022-12-18T06:27:12;50.00;;;25.97;;
8458;SDS011;4266;48.816;9.154;2022-12-18T06:29:37;49.27;;;26.33;;
8458;SDS011;4266;48.816;9.154;2022-12-18T06:32:03;48.03;;;25.83;;
8458;SDS011;4266;48.816;9.154;2022-12-18T06:34:30;45.37;;;25.53;;
8458;SDS011;4266;48.816;9.154;2022-12-18T06:36:55;40.33;;;24.67;;
8458;SDS011;4266;48.816;9.154;2022-12-18T06:39:21;45.80;;;24.77;;
8458;SDS011;4266;48.816;9.154;2022-12-18T06:41:47;42.67;;;25.97;;
8458;SDS011;4266;48.816;9.154;2022-12-18T06:44:12;40.73;;;24.13;;
8458;SDS011;4266;48.816;9.154;2022-12-18T06:46:39;42.30;;;24.63;;
8458;SDS011;4266;48.816;9.154;2022-12-18T06:49:05;41.50;;;23.73;;
8458;SDS011;4266;48.816;9.154;2022-12-18T06:51:30;40.73;;;24.97;;
8458;SDS011;4266;48.816;9.154;2022-12-18T06:53:57;43.03;;;24.07;;
8458;SDS011;4266;48.816;9.154;2022-12-18T06:56:22;42.83;;;24.43;;
8458;SDS011;4266;48.816;9.154;2022-12-18T06:58:50;40.27;;;22.90;;
8458;SDS011;4266;48.816;9.154;2022-12-18T07:01:16;45.67;;;24.47;;
8458;SDS011;4266;48.816;9.154;2022-12-18T07:03:42;45.33;;;25.57;;
8458;SDS011;4266;48.816;9.154;2022-12-18T07:06:13;38.40;;;23.80;;
8458;SDS011;4266;48.816;9.154;2022-12-18T07:08:38;46.77;;;24.97;;
8458;SDS011;4266;48.816;9.154;2022-12-18T07:11:04;45.67;;;25.60;;
8458;SDS011;4266;48.816;9.154;2022-12-18T07:13:29;43.10;;;23.60;;
8458;SDS011;4266;48.816;9.154;2022-12-18T07:15:55;38.97;;;24.23;;
8458;SDS011;4266;48.816;9.154;2022-12-18T07:18:21;47.43;;;24.60;;
8458;SDS011;4266;48.816;9.154;2022-12-18T07:20:46;44.37;;;24.53;;
8458;SDS011;4266;48.816;9.154;2022-12-18T07:23:12;42.00;;;25.30;;
8458;SDS011;4266;48.816;9.154;2022-12-18T07:25:39;42.67;;;24.43;;
8458;SDS011;4266;48.816;9.154;2022-12-18T07:28:04;45.00;;;25.10;;
8458;SDS011;4266;48.816;9.154;2022-12-18T07:30:30;44.83;;;25.70;;
8458;SDS011;4266;48.816;9.154;2022-12-18T07:32:56;44.90;;;25.03;;
8458;SDS011;4266;48.816;9.154;2022-12-18T07:35:21;42.27;;;23.63;;
8458;SDS011;4266;48.816;9.154;2022-12-18T07:37:47;39.20;;;24.37;;
8458;SDS011;4266;48.816;9.154;2022-12-18T07:40:14;40.47;;;23.80;;
8458;SDS011;4266;48.816;9.154;2022-12-18T07:42:40;43.30;;;26.13;;
8458;SDS011;4266;48.816;9.154;2022-12-18T07:45:07;46.80;;;24.83;;
8458;SDS011;4266;48.816;9.154;2022-12-18T07:47:34;42.27;;;25.13;;
8458;SDS011;4266;48.816;9.154;2022-12-18T07:50:01;46.30;;;25.40;;
8458;SDS011;4266;48.816;9.154;2022-12-18T07:52:27;45.67;;;27.57;;
8458;SDS011;4266;48.816;9.154;2022-12-18T07:54:52;48.20;;;29.67;;
8458;SDS011;4266;48.816;9.154;2022-12-18T07:57:18;45.30;;;29.00;;
8458;SDS011;4266;48.816;9.154;2022-12-18T07:59:45;49.57;;;28.73;;
8458;SDS011;4266;48.816;9.154;2022-12-18T08:02:11;42.77;;;26.67;;
8458;SDS011;4266;48.816;9.154;2022-12-18T08:04:37;43.03;;;29.93;;
8458;SDS011;4266;48.816;9.154;2022-12-18T08:07:03;45.73;;;30.50;;
8458;SDS011;4266;48.816;9.154;2022-12-18T08:09:29;40.23;;;28.93;;
8458;SDS011;4266;48.816;9.154;2022-12-18T08:11:55;44.00;;;29.17;;
8458;SDS011;4266;48.816;9.154;2022-12-18T08:14:20;41.53;;;29.60;;
8458;SDS011;4266;48.816;9.154;2022-12-18T08:16:46;43.77;;;28.33;;
8458;SDS011;4266;48.816;9.154;2022-12-18T08:19:12;44.87;;;28.97;;
8458;SDS011;4266;48.816;9.154;2022-12-18T08:21:40;43.40;;;29.17;;
8458;SDS011;4266;48.816;9.154;2022-12-18T08:24:06;40.53;;;29.27;;
8458;SDS011;4266;48.816;9.154;2022-12-18T08:26:32;41.83;;;27.97;;
8458;SDS011;4266;48.816;9.154;2022-12-18T08:28:58;42.03;;;29.57;;
8458;SDS011;4266;48.816;9.154;2022-12-18T08:31:24;42.77;;;29.73;;
8458;SDS011;4266;48.816;9.154;2022-12-18T08:33:49;41.83;;;29.57;;
8458;SDS011;4266;48.816;9.154;2022-12-18T08:36:15;41.67;;;29.50;;
8458;SDS011;4266;48.816;9.154;2022-12-18T08:38:41;41.73;;;28.67;;
8458;SDS011;4266;48.816;9.154;2022-12-18T08:41:08;40.60;;;27.60;;
8458;SDS011;4266;48.816;9.154;2022-12-18T08:43:32;39.50;;;27.50;;
8458;SDS011;4266;48.816;9.154;2022-12-18T08:46:04;36.43;;;27.00;;
8458;SDS011;4266;48.816;9.154;2022-12-18T08:48:30;44.73;;;29.53;;
8458;SDS011;4266;48.816;9.154;2022-12-18T08:50:56;64.73;;;29.47;;
8458;SDS011;4266;48.816;9.154;2022-12-18T08:53:22;50.43;;;29.33;;
8458;SDS011;4266;48.816;9.154;2022-12-18T08:55:48;152.20;;;34.27;;
8458;SDS011;4266;48.816;9.154;2022-12-18T08:58:14;103.17;;;32.20;;
8458;SDS011;4266;48.816;9.154;2022-12-18T09:00:40;129.63;;;31.53;;
8458;SDS011;4266;48.816;9.154;2022-12-18T09:03:10;56.47;;;30.50;;
8458;SDS011;4266;48.816;9.154;2022-12-18T09:05:31;69.80;;;32.13;;
8458;SDS011;4266;48.816;9.154;2022-12-18T09:07:57;51.00;;;30.10;;
8458;SDS011;4266;48.816;9.154;2022-12-18T09:10:23;79.17;;;33.00;;
8458;SDS011;4266;48.816;9.154;2022-12-18T09:12:48;53.30;;;30.90;;
8458;SDS011;4266;48.816;9.154;2022-12-18T09:15:14;47.67;;;29.77;;
8458;SDS011;4266;48.816;9.154;2022-12-18T09:17:40;39.27;;;28.77;;
8458;SDS011;4266;48.816;9.154;2022-12-18T09:20:06;43.23;;;30.30;;
8458;SDS011;4266;48.816;9.154;2022-12-18T09:22:34;41.03;;;30.23;;
8458;SDS011;4266;48.816;9.154;2022-12-18T09:24:59;42.90;;;30.33;;
8458;SDS011;4266;48.816;9.154;2022-12-18T09:27:25;39.00;;;29.13;;
8458;SDS011;4266;48.816;9.154;2022-12-18T09:29:51;39.90;;;29.50;;
8458;SDS011;4266;48.816;9.154;2022-12-18T09:32:16;38.37;;;29.60;;
8458;SDS011;4266;48.816;9.154;2022-12-18T09:34:42;39.90;;;31.37;;
8458;SDS011;4266;48.816;9.154;2022-12-18T09:37:08;39.63;;;30.53;;
8458;SDS011;4266;48.816;9.154;2022-12-18T09:39:35;48.03;;;30.30;;
8458;SDS011;4266;48.816;9.154;2022-12-18T09:42:00;40.77;;;30.00;;
8458;SDS011;4266;48.816;9.154;2022-12-18T09:44:31;35.87;;;29.87;;
8458;SDS011;4266;48.816;9.154;2022-12-18T09:47:34;37.57;;;29.77;;
8458;SDS011;4266;48.816;9.154;2022-12-18T09:49:54;40.77;;;29.87;;
8458;SDS011;4266;48.816;9.154;2022-12-18T09:52:37;37.30;;;29.53;;
8458;SDS011;4266;48.816;9.154;2022-12-18T09:55:09;40.47;;;29.93;;
8458;SDS011;4266;48.816;9.154;2022-12-18T09:57:49;38.23;;;29.37;;
8458;SDS011;4266;48.816;9.154;2022-12-18T10:00:18;36.73;;;28.37;;
8458;SDS011;4266;48.816;9.154;2022-12-18T10:02:42;38.60;;;28.33;;
8458;SDS011;4266;48.816;9.154;2022-12-18T10:05:11;34.00;;;27.57;;
8458;SDS011;4266;48.816;9.154;2022-12-18T10:07:42;38.83;;;28.17;;
8458;SDS011;4266;48.816;9.154;2022-12-18T10:10:13;37.50;;;29.13;;
8458;SDS011;4266;48.816;9.154;2022-12-18T10:12:42;36.03;;;29.87;;
8458;SDS011;4266;48.816;9.154;2022-12-18T10:15:07;34.90;;;28.57;;
8458;SDS011;4266;48.816;9.154;2022-12-18T10:17:35;39.00;;;30.03;;
8458;SDS011;4266;48.816;9.154;2022-12-18T10:20:17;38.80;;;29.30;;
8458;SDS011;4266;48.816;9.154;2022-12-18T10:22:47;37.10;;;29.73;;
8458;SDS011;4266;48.816;9.154;2022-12-18T10:25:20;39.27;;;29.27;;
8458;SDS011;4266;48.816;9.154;2022-12-18T10:27:47;37.77;;;29.63;;
8458;SDS011;4266;48.816;9.154;2022-12-18T10:30:14;36.40;;;29.07;;
8458;SDS011;4266;48.816;9.154;2022-12-18T10:32:39;36.50;;;28.70;;
8458;SDS011;4266;48.816;9.154;2022-12-18T10:35:07;37.17;;;30.13;;
8458;SDS011;4266;48.816;9.154;2022-12-18T10:37:31;38.13;;;29.30;;
8458;SDS011;4266;48.816;9.154;2022-12-18T10:42:35;34.97;;;28.50;;
8458;SDS011;4266;48.816;9.154;2022-12-18T10:45:02;35.77;;;28.70;;
8458;SDS011;4266;48.816;9.154;2022-12-18T10:47:26;34.77;;;28.57;;
8458;SDS011;4266;48.816;9.154;2022-12-18T10:49:52;34.53;;;28.00;;
8458;SDS011;4266;48.816;9.154;2022-12-18T10:52:19;36.60;;;30.23;;
8458;SDS011;4266;48.816;9.154;2022-12-18T10:55:03;37.33;;;29.87;;
8458;SDS011;4266;48.816;9.154;2022-12-18T10:57:30;38.37;;;30.27;;
8458;SDS011;4266;48.816;9.154;2022-12-18T10:59:56;38.67;;;33.00;;
8458;SDS011;4266;48.816;9.154;2022-12-18T11:02:27;40.73;;;29.97;;
8458;SDS011;4266;48.816;9.154;2022-12-18T11:04:58;39.63;;;30.23;;
8458;SDS011;4266;48.816;9.154;2022-12-18T11:07:24;38.47;;;30.30;;
8458;SDS011;4266;48.816;9.154;2022-12-18T11:09:59;35.17;;;28.73;;
8458;SDS011;4266;48.816;9.154;2022-12-18T11:12:22;37.73;;;28.73;;
8458;SDS011;4266;48.816;9.154;2022-12-18T11:14:49;37.43;;;29.47;;
8458;SDS011;4266;48.816;9.154;2022-12-18T11:17:19;37.37;;;29.07;;
8458;SDS011;4266;48.816;9.154;2022-12-18T11:19:44;34.83;;;28.23;;
8458;SDS011;4266;48.816;9.154;2022-12-18T11:24:42;37.13;;;26.87;;
8458;SDS011;4266;48.816;9.154;2022-12-18T11:27:15;34.53;;;27.80;;
8458;SDS011;4266;48.816;9.154;2022-12-18T11:29:40;35.33;;;28.27;;
8458;SDS011;4266;48.816;9.154;2022-12-18T11:32:13;35.03;;;27.23;;
8458;SDS011;4266;48.816;9.154;2022-12-18T11:34:58;32.53;;;26.00;;
8458;SDS011;4266;48.816;9.154;2022-12-18T11:37:21;33.97;;;26.77;;
8458;SDS011;4266;48.816;9.154;2022-12-18T11:39:51;39.93;;;27.20;;
8458;SDS011;4266;48.816;9.154;2022-12-18T11:42:22;34.53;;;27.20;;
8458;SDS011;4266;48.816;9.154;2022-12-18T11:44:48;32.73;;;26.93;;
8458;SDS011;4266;48.816;9.154;2022-12-18T11:47:21;32.13;;;26.43;;
8458;SDS011;4266;48.816;9.154;2022-12-18T11:50:00;36.70;;;26.70;;
8458;SDS011;4266;48.816;9.154;2022-12-18T11:52:31;34.03;;;26.47;;
8458;SDS011;4266;48.816;9.154;2022-12-18T11:54:55;30.40;;;23.07;;
8458;SDS011;4266;48.816;9.154;2022-12-18T11:57:30;34.27;;;25.63;;
8458;SDS011;4266;48.816;9.154;2022-12-18T12:00:01;31.80;;;24.07;;
8458;SDS011;4266;48.816;9.154;2022-12-18T12:02:35;31.77;;;23.20;;
8458;SDS011;4266;48.816;9.154;2022-12-18T12:08:15;39.63;;;25.23;;
8458;SDS011;4266;48.816;9.154;2022-12-18T12:11:05;39.47;;;23.50;;
8458;SDS011;4266;48.816;9.154;2022-12-18T12:14:52;39.10;;;24.23;;
8458;SDS011;4266;48.816;9.154;2022-12-18T12:16:46;30.40;;;22.20;;
8458;SDS011;4266;48.816;9.154;2022-12-18T12:22:08;36.93;;;23.27;;
8458;SDS011;4266;48.816;9.154;2022-12-18T12:24:37;32.97;;;23.90;;
8458;SDS011;4266;48.816;9.154;2022-12-18T12:27:10;35.53;;;24.13;;
8458;SDS011;4266;48.816;9.154;2022-12-18T12:29:58;33.43;;;22.03;;
8458;SDS011;4266;48.816;9.154;2022-12-18T12:32:25;34.60;;;23.93;;
8458;SDS011;4266;48.816;9.154;2022-12-18T12:37:43;36.90;;;24.37;;
8458;SDS011;4266;48.816;9.154;2022-12-18T12:40:18;34.20;;;22.97;;
8458;SDS011;4266;48.816;9.154;2022-12-18T12:42:46;35.20;;;23.77;;
8458;SDS011;4266;48.816;9.154;2022-12-18T12:45:17;37.40;;;24.83;;
8458;SDS011;4266;48.816;9.154;2022-12-18T12:47:42;37.67;;;25.07;;
8458;SDS011;4266;48.816;9.154;2022-12-18T12:50:12;37.40;;;23.90;;
8458;SDS011;4266;48.816;9.154;2022-12-18T12:52:34;38.30;;;23.63;;
8458;SDS011;4266;48.816;9.154;2022-12-18T12:55:00;33.67;;;22.97;;
8458;SDS011;4266;48.816;9.154;2022-12-18T12:57:34;30.87;;;21.27;;
8458;SDS011;4266;48.816;9.154;2022-12-18T13:00:07;33.57;;;22.23;;
8458;SDS011;4266;48.816;9.154;2022-12-18T13:05:14;37.03;;;24.00;;
8458;SDS011;4266;48.816;9.154;2022-12-18T13:07:44;37.07;;;23.60;;
8458;SDS011;4266;48.816;9.154;2022-12-18T13:10:41;40.73;;;25.07;;
8458;SDS011;4266;48.816;9.154;2022-12-18T13:12:52;35.67;;;23.47;;
8458;SDS011;4266;48.816;9.154;2022-12-18T13:15:24;35.03;;;22.97;;
8458;SDS011;4266;48.816;9.154;2022-12-18T13:18:05;38.20;;;23.87;;
8458;SDS011;4266;48.816;9.154;2022-12-18T13:20:49;37.17;;;23.50;;
8458;SDS011;4266;48.816;9.154;2022-12-18T13:23:25;39.23;;;25.57;;
8458;SDS011;4266;48.816;9.154;2022-12-18T13:25:54;36.50;;;22.37;;
8458;SDS011;4266;48.816;9.154;2022-12-18T13:28:24;37.40;;;24.10;;
8458;SDS011;4266;48.816;9.154;2022-12-18T13:31:04;35.77;;;22.47;;
8458;SDS011;4266;48.816;9.154;2022-12-18T13:33:37;36.90;;;23.20;;
8458;SDS011;4266;48.816;9.154;2022-12-18T13:36:33;36.67;;;22.93;;
8458;SDS011;4266;48.816;9.154;2022-12-18T13:41:52;34.97;;;22.37;;
8458;SDS011;4266;48.816;9.154;2022-12-18T13:44:24;34.60;;;22.53;;
8458;SDS011;4266;48.816;9.154;2022-12-18T13:46:49;42.43;;;24.50;;
8458;SDS011;4266;48.816;9.154;2022-12-18T13:51:49;38.70;;;23.57;;
8458;SDS011;4266;48.816;9.154;2022-12-18T13:54:33;36.87;;;24.20;;
8458;SDS011;4266;48.816;9.154;2022-12-18T13:57:00;38.27;;;24.73;;
8458;SDS011;4266;48.816;9.154;2022-12-18T13:59:32;37.23;;;24.10;;
8458;SDS011;4266;48.816;9.154;2022-12-18T14:01:53;37.97;;;22.40;;
8458;SDS011;4266;48.816;9.154;2022-12-18T14:04:21;42.13;;;24.70;;
8458;SDS011;4266;48.816;9.154;2022-12-18T14:06:46;39.50;;;23.73;;
8458;SDS011;4266;48.816;9.154;2022-12-18T14:09:13;43.23;;;24.73;;
8458;SDS011;4266;48.816;9.154;2022-12-18T14:11:45;39.73;;;23.70;;
8458;SDS011;4266;48.816;9.154;2022-12-18T14:14:07;38.73;;;24.20;;
8458;SDS011;4266;48.816;9.154;2022-12-18T14:16:33;43.50;;;25.43;;
8458;SDS011;4266;48.816;9.154;2022-12-18T14:18:58;35.13;;;23.80;;
8458;SDS011;4266;48.816;9.154;2022-12-18T14:21:26;41.23;;;25.20;;
8458;SDS011;4266;48.816;9.154;2022-12-18T14:26:33;44.00;;;26.80;;
8458;SDS011;4266;48.816;9.154;2022-12-18T14:28:59;43.50;;;24.97;;
8458;SDS011;4266;48.816;9.154;2022-12-18T14:31:25;48.30;;;26.03;;
8458;SDS011;4266;48.816;9.154;2022-12-18T14:33:50;43.97;;;25.17;;
8458;SDS011;4266;48.816;9.154;2022-12-18T14:36:17;44.00;;;25.70;;
8458;SDS011;4266;48.816;9.154;2022-12-18T14:38:43;49.97;;;26.73;;
8458;SDS011;4266;48.816;9.154;2022-12-18T14:41:10;47.73;;;26.67;;
8458;SDS011;4266;48.816;9.154;2022-12-18T14:43:38;49.90;;;27.13;;
8458;SDS011;4266;48.816;9.154;2022-12-18T14:46:03;47.90;;;25.80;;
8458;SDS011;4266;48.816;9.154;2022-12-18T14:48:34;49.77;;;26.53;;
8458;SDS011;4266;48.816;9.154;2022-12-18T14:51:00;50.47;;;26.47;;
8458;SDS011;4266;48.816;9.154;2022-12-18T14:53:59;52.63;;;28.50;;
8458;SDS011;4266;48.816;9.154;2022-12-18T14:58:48;47.00;;;28.13;;
8458;SDS011;4266;48.816;9.154;2022-12-18T15:01:19;52.37;;;28.90;;
8458;SDS011;4266;48.816;9.154;2022-12-18T15:03:44;45.33;;;26.83;;
8458;SDS011;4266;48.816;9.154;2022-12-18T15:06:17;45.00;;;28.27;;
8458;SDS011;4266;48.816;9.154;2022-12-18T15:08:43;56.53;;;29.43;;
8458;SDS011;4266;48.816;9.154;2022-12-18T15:13:50;50.83;;;28.83;;
8458;SDS011;4266;48.816;9.154;2022-12-18T15:16:16;49.27;;;27.93;;
8458;SDS011;4266;48.816;9.154;2022-12-18T15:18:42;52.20;;;28.63;;
8458;SDS011;4266;48.816;9.154;2022-12-18T15:21:09;54.10;;;29.97;;
8458;SDS011;4266;48.816;9.154;2022-12-18T15:26:13;50.03;;;29.33;;
8458;SDS011;4266;48.816;9.154;2022-12-18T15:28:45;53.67;;;28.67;;